Long Island Mac Arthur Airport
KISP : now visible

Airfield :











YOU CAN JOIN US ON...

 
LOGIN :

Register | Disclaimer

   EN    FR    IT 

 









Legend :    VFR   Marginal VFR   IFR   Intensive IFR   Very Intensive IFR
Visi :
Ceiling :
>= 8 km
>= 3000ft
5 to 8 km
1000 to 3000 ft
1500m to 5 km
500 to 1000 ft
800 to 1500m
200 to 500 ft
< 800m
< 200 ft
Symbols :   Thunderstorms  Fog  Heavy snow  Heavy precipitations  Wind > 20 kt






- Airport Elevation : 99 ft
- IATA code : ISP


KISP - Long Island Mac Arthur

CURRENT METAR :
  • 280456Z AUTO 20003KT 1/2SM R06/2000V2200FT FG VV002 17/17 A3023 RMK AO2 SLP236 T01670167 402330144

EXPIRED METARs :
  • 280453Z AUTO 19003KT 1/4SM R06/2000V2200FT FG VV002 17/17 A3023 RMK AO2
  • 280418Z AUTO 19003KT 1/4SM R06/1600V2200FT FG VV002 16/16 A3024 RMK AO2 T01610161
  • 280406Z AUTO 17004KT 3/4SM R06/2000VP6000FT BR VV002 16/16 A3024 RMK AO2 T01610161
  • 280356Z 17003KT 1SM R06/4000VP6000FT BR OVC002 16/16 A3024 RMK AO2 SLP238 LAST T01610161
  • 280256Z 17006KT 1/2SM R06/2200V4500FT FG OVC002 16/16 A3023 RMK AO2 SLP236 T01610161 51005

TAF KISP
Valid from the 28 at 03:00 until the 29 at 00:00 UTC


280259Z 2803/2824 18005KT 1/2SM FG OVC002
FM281300 17008KT 4SM BR OVC007
FM281600 17010KT 5SM BR BKN012
FM281800 16013KT 5SM BR SCT008 OVC012
PROB30 2818/2824 P6SM -SHRA OVC009
KZBW FIR / North America



MET'MAP, your aeronautical weather chart ! - Copyright ORBIFLY December 2007 - Disclaimer

ORBIFLY MET'MAP TEAM :

Programming & Development : Alexandra Zaïnal
Concept & original design : Baudouin d'Aumeries
Assistance for programming : Marc-Olivier Méhu
Technical & hardware support : Manuel Goepfert

Contact : metmap@orbifly.com




SOURCES & CREDITS :

   NOAA       Earth
Advisory